Terminal Aerodrome Forecast
Issued by NWS

Home | Current Version | Previous Version | Text Only | Print | Product List | Glossary On
Versions: 1 2 3 4 5 6 7 8 9 10 11 12 13 14 15 16 17 18 19 20 21 22
000
FTUS44 KMAF 071359 AAA
TAFFST
TAF AMD
KFST 071359Z 0714/0812 28010KT P6SM SCT040 OVC100
      TEMPO 0714/0716 BKN020
     FM072200 09010KT 6SM TSRA BKN040CB
     FM080600 14009KT P6SM FEW200=

USA.gov is the U.S. government's official web portal to all federal, state and local government web resources and services.